^^
B2 Weather Station Historical Data
Daily Summary for December 1, 2018 Units:  English    Metric   Both
Daily Weekly Monthly Yearly Custom
  High: Low: Average:
Temperature: 51.7 °F 33.7 °F 41 °F
Dew Point: 50.3 °F 32.2 °F 39.6 °F
Humidity: 95% 94% 95%
Wind Speed: 24.2mph 0mph 12.6mph
Wind Gust: 18.8mph - -
Wind- - ESE
Pressure: 30.00 in 29.30 in -
Precipitation: 0.78 in    
Historical Graphs
 
 
Tabular Data for December 1, 2018
Time Temperature Dew Point Pressure Wind Wind Speed Wind Gust Humidity Rainfall Rate (Hourly) solar
00:04 33.9 °F 32.4 °F 30.00 in ESE 10.4 mph 6 mph 94% 0 in 0.00 W/m2
00:09 33.8 °F 32.3 °F 30.00 in SE 8.1 mph 3.6 mph 94% 0 in 0.00 W/m2
00:14 33.8 °F 32.3 °F 29.98 in ESE 7 mph 4.8 mph 94% 0 in 0.00 W/m2
00:19 33.7 °F 32.2 °F 29.97 in East 8.1 mph 5.2 mph 94% 0 in 0.00 W/m2
00:24 33.7 °F 32.2 °F 29.97 in East 10.4 mph 6.1 mph 94% 0 in 0.00 W/m2
00:29 33.7 °F 32.2 °F 29.96 in ENE 8.1 mph 5.8 mph 94% 0 in 0.00 W/m2
00:34 33.8 °F 32.3 °F 29.96 in East 9.2 mph 4.3 mph 94% 0 in 0.00 W/m2
00:39 33.8 °F 32.3 °F 29.96 in ENE 9.2 mph 3.1 mph 94% 0 in 0.00 W/m2
00:44 33.8 °F 32.3 °F 29.97 in East 8.1 mph 3.5 mph 94% 0 in 0.00 W/m2
00:49 33.8 °F 32.3 °F 29.97 in East 5 mph 3.5 mph 94% 0 in 0.00 W/m2
00:54 33.8 °F 32.3 °F 29.97 in ENE 5.8 mph 3.4 mph 94% 0 in 0.00 W/m2
00:59 33.9 °F 32.4 °F 29.96 in ESE 8.1 mph 2.8 mph 94% 0 in 0.00 W/m2
01:04 33.9 °F 32.4 °F 29.95 in East 5.8 mph 2.8 mph 94% 0 in 0.00 W/m2
01:09 33.9 °F 32.4 °F 29.95 in East 6.9 mph 3 mph 94% 0 in 0.00 W/m2
01:14 34 °F 32.5 °F 29.96 in East 8.1 mph 4.4 mph 94% 0 in 0.00 W/m2
01:19 34.1 °F 32.6 °F 29.96 in ESE 5.8 mph 4.4 mph 94% 0 in 0.00 W/m2
01:24 34.2 °F 32.7 °F 29.96 in East 8.1 mph 7.5 mph 94% 0 in 0.00 W/m2
01:29 34.2 °F 32.7 °F 29.95 in NE 5.8 mph 3.5 mph 94% 0 in 0.00 W/m2
01:34 34.2 °F 32.7 °F 29.95 in East 8.1 mph 5.8 mph 94% 0 in 0.00 W/m2
01:39 34.2 °F 32.7 °F 29.95 in East 8.1 mph 3.8 mph 94% 0 in 0.00 W/m2
01:44 34.1 °F 32.6 °F 29.94 in ENE 9.2 mph 5.3 mph 94% 0 in 0.00 W/m2
01:49 34.1 °F 32.6 °F 29.93 in ENE 8.1 mph 6.4 mph 94% 0 in 0.00 W/m2
01:54 34.2 °F 32.7 °F 29.94 in ENE 9.2 mph 6.1 mph 94% 0 in 0.00 W/m2
01:59 34.2 °F 32.7 °F 29.93 in ENE 8.1 mph 4.4 mph 94% 0 in 0.00 W/m2
02:04 34.2 °F 32.7 °F 29.92 in ENE 9.2 mph 3.4 mph 94% 0 in 0.00 W/m2
02:09 34.2 °F 32.7 °F 29.92 in ENE 10.4 mph 4.4 mph 94% 0 in 0.00 W/m2
02:14 34.2 °F 32.7 °F 29.91 in East 9.2 mph 5.7 mph 94% 0 in 0.00 W/m2
02:19 34.2 °F 32.7 °F 29.92 in East 10.4 mph 6.7 mph 94% 0 in 0.00 W/m2
02:24 34.2 °F 32.7 °F 29.91 in ENE 10.4 mph 7.9 mph 94% 0 in 0.00 W/m2
02:29 34.2 °F 32.7 °F 29.90 in ENE 10.4 mph 8 mph 94% 0 in 0.00 W/m2
02:34 34.2 °F 32.7 °F 29.90 in ENE 7 mph 4.9 mph 94% 0 in 0.00 W/m2
02:39 34.2 °F 32.7 °F 29.90 in East 9.2 mph 5.3 mph 94% 0 in 0.00 W/m2
02:44 34.2 °F 32.7 °F 29.89 in ENE 11.5 mph 5.9 mph 94% 0 in 0.00 W/m2
02:49 34.1 °F 32.6 °F 29.89 in ENE 10.4 mph 7.6 mph 94% 0 in 0.00 W/m2
02:54 34.1 °F 32.6 °F 29.88 in ENE 15 mph 8.5 mph 94% 0 in 0.00 W/m2
02:59 34.1 °F 32.6 °F 29.88 in NE 11.5 mph 6 mph 94% 0 in 0.00 W/m2
03:04 34.1 °F 32.6 °F 29.89 in East 9.2 mph 6.1 mph 94% 0 in 0.00 W/m2
03:09 34.1 °F 32.6 °F 29.89 in ENE 11.5 mph 6.4 mph 94% 0 in 0.00 W/m2
03:14 34.1 °F 32.6 °F 29.89 in East 12.7 mph 4 mph 94% 0 in 0.00 W/m2
03:19 34.1 °F 32.6 °F 29.88 in East 8.1 mph 5.2 mph 94% 0 in 0.00 W/m2
03:24 34.1 °F 32.6 °F 29.89 in East 11.5 mph 5.5 mph 94% 0 in 0.00 W/m2
03:29 34.1 °F 32.6 °F 29.87 in ENE 10.4 mph 7.5 mph 94% 0 in 0.00 W/m2
03:34 34.1 °F 32.6 °F 29.87 in East 7 mph 5 mph 94% 0 in 0.00 W/m2
03:39 34.2 °F 32.7 °F 29.87 in East 10 mph 5.7 mph 94% 0 in 0.00 W/m2
03:44 34.2 °F 32.7 °F 29.86 in ENE 11.5 mph 4.7 mph 94% 0 in 0.00 W/m2
03:49 34.2 °F 32.7 °F 29.85 in ENE 13.8 mph 11.4 mph 94% 0 in 0.00 W/m2
03:54 34.2 °F 32.7 °F 29.84 in ENE 14 mph 12.1 mph 94% 0 in 0.00 W/m2
03:59 34.1 °F 32.6 °F 29.83 in ENE 13.8 mph 10.7 mph 94% 0 in 0.00 W/m2
04:04 34.1 °F 32.6 °F 29.84 in ENE 17.3 mph 13 mph 94% 0 in 0.00 W/m2
04:09 34 °F 32.5 °F 29.83 in ENE 15 mph 9.5 mph 94% 0 in 0.00 W/m2
04:14 34 °F 32.5 °F 29.83 in East 17.3 mph 11.6 mph 94% 0 in 0.00 W/m2
04:19 34 °F 32.5 °F 29.82 in ENE 16.1 mph 10.9 mph 94% 0 in 0.00 W/m2
04:24 34 °F 32.5 °F 29.83 in ENE 11.5 mph 8 mph 94% 0 in 0.00 W/m2
04:29 34 °F 32.5 °F 29.82 in East 13.8 mph 10 mph 94% 0 in 0.00 W/m2
04:34 34 °F 32.5 °F 29.82 in East 16.1 mph 10.1 mph 94% 0 in 0.00 W/m2
04:39 34 °F 32.5 °F 29.82 in East 11.5 mph 8.8 mph 94% 0 in 0.00 W/m2
04:44 34 °F 32.5 °F 29.80 in East 16.1 mph 12.5 mph 94% 0 in 0.00 W/m2
04:49 34 °F 32.5 °F 29.80 in ENE 15 mph 10.5 mph 94% 0 in 0.00 W/m2
04:54 34.1 °F 32.6 °F 29.79 in ENE 15 mph 12.8 mph 94% 0 in 0.00 W/m2
04:59 34.1 °F 32.6 °F 29.79 in East 13 mph 10.5 mph 94% 0 in 0.00 W/m2
05:04 34.1 °F 32.6 °F 29.78 in ENE 16 mph 11.8 mph 94% 0 in 0.00 W/m2
05:09 34 °F 32.5 °F 29.77 in East 15 mph 11.2 mph 94% 0 in 0.00 W/m2
05:14 34 °F 32.5 °F 29.77 in ENE 13.8 mph 12 mph 94% 0 in 0.00 W/m2
05:19 34.1 °F 32.6 °F 29.77 in ENE 16.1 mph 11.8 mph 94% 0 in 0.00 W/m2
05:24 34.2 °F 32.9 °F 29.76 in ENE 13.8 mph 9.8 mph 95% 0 in 0.00 W/m2
05:29 34.2 °F 32.9 °F 29.76 in ENE 13.8 mph 11.3 mph 95% 0 in 0.00 W/m2
05:34 34.3 °F 33 °F 29.76 in ENE 16.1 mph 11.1 mph 95% 0 in 0.00 W/m2
05:39 34.3 °F 33 °F 29.75 in NE 13.8 mph 8.9 mph 95% 0 in 0.00 W/m2
05:44 34.3 °F 33 °F 29.76 in ENE 15 mph 12.9 mph 95% 0 in 0.00 W/m2
05:49 34.4 °F 33.1 °F 29.76 in ENE 17.3 mph 13.1 mph 95% 0 in 0.00 W/m2
05:54 34.4 °F 32.9 °F 29.76 in ENE 12.7 mph 11 mph 94% 0 in 0.00 W/m2
05:59 34.5 °F 33 °F 29.76 in ENE 16.1 mph 10.3 mph 94% 0 in 0.00 W/m2
06:04 34.5 °F 33 °F 29.76 in ENE 13.8 mph 11.1 mph 94% 0 in 0.00 W/m2
06:09 34.5 °F 33 °F 29.76 in ENE 16.1 mph 12.1 mph 94% 0 in 0.00 W/m2
06:14 34.6 °F 33.1 °F 29.77 in East 15 mph 9.3 mph 94% 0 in 0.00 W/m2
06:19 34.7 °F 33.2 °F 29.77 in ENE 12.7 mph 9.3 mph 94% 0 in 0.00 W/m2
06:24 34.8 °F 33.5 °F 29.77 in East 10.4 mph 8.9 mph 95% 0 in 0.00 W/m2
06:29 35 °F 33.7 °F 29.76 in ENE 10.4 mph 7.9 mph 95% 0 in 0.00 W/m2
06:34 35.1 °F 33.5 °F 29.76 in ENE 11.5 mph 9 mph 94% 0 in 0.00 W/m2
06:39 35.2 °F 33.6 °F 29.76 in ENE 11 mph 7.2 mph 94% 0.01 in 0.00 W/m2
06:44 35.3 °F 33.7 °F 29.76 in ENE 11.5 mph 8.5 mph 94% 0.03 in 0.00 W/m2
06:49 35.6 °F 34 °F 29.75 in East 15 mph 10 mph 94% 0.05 in 0.00 W/m2
06:54 35.8 °F 34.2 °F 29.75 in East 13.8 mph 11 mph 94% 0.07 in 0.00 W/m2
06:59 35.7 °F 34.4 °F 29.74 in ENE 16.1 mph 9.7 mph 95% 0.08 in 0.00 W/m2
07:04 35.7 °F 34.4 °F 29.74 in ENE 12.7 mph 8.5 mph 95% 0.1 in 0.00 W/m2
07:09 35.8 °F 34.5 °F 29.73 in ENE 12.7 mph 9.4 mph 95% 0.12 in 0.00 W/m2
07:14 35.7 °F 34.4 °F 29.73 in East 13.8 mph 9.3 mph 95% 0.15 in 0.00 W/m2
07:19 35.7 °F 34.4 °F 29.72 in East 13 mph 10.3 mph 95% 0.19 in 0.00 W/m2
07:24 35.9 °F 34.3 °F 29.71 in East 16.1 mph 11.9 mph 94% 0.22 in 0.00 W/m2
07:29 36.1 °F 34.8 °F 29.73 in East 11.5 mph 9 mph 95% 0.25 in 0.00 W/m2
07:34 36.3 °F 34.7 °F 29.72 in ENE 17.3 mph 10.2 mph 94% 0.28 in 0.00 W/m2
07:39 36.3 °F 34.7 °F 29.71 in ENE 15 mph 10.6 mph 94% 0.28 in 0.00 W/m2
07:44 36.3 °F 34.7 °F 29.69 in ENE 16.1 mph 14.1 mph 94% 0.27 in 0.00 W/m2
07:49 36.4 °F 34.8 °F 29.69 in ENE 15 mph 13.6 mph 94% 0.25 in 0.00 W/m2
07:54 36.4 °F 34.8 °F 29.68 in ENE 16.1 mph 14.7 mph 94% 0.24 in 0.00 W/m2
07:59 36.4 °F 34.8 °F 29.68 in ENE 17.3 mph 14.5 mph 94% 0.23 in 7.00 W/m2
08:04 36.5 °F 34.9 °F 29.68 in ENE 17.3 mph 12.9 mph 94% 0.22 in 12.00 W/m2
08:09 36.5 °F 34.9 °F 29.69 in East 18.4 mph 14.2 mph 94% 0.21 in 9.00 W/m2
08:14 36.5 °F 35.2 °F 29.70 in East 16.1 mph 9.7 mph 95% 0.18 in 0.00 W/m2
08:19 36.7 °F 35.4 °F 29.70 in East 14 mph 9 mph 95% 0.14 in 0.00 W/m2
08:24 36.9 °F 35.3 °F 29.69 in ENE 12.7 mph 10.4 mph 94% 0.13 in 0.00 W/m2
08:29 36.9 °F 35.3 °F 29.67 in ENE 13 mph 11.6 mph 94% 0.15 in 0.00 W/m2
08:34 36.9 °F 35.3 °F 29.65 in ENE 15 mph 12.6 mph 94% 0.16 in 5.00 W/m2
08:39 37 °F 35.4 °F 29.64 in East 17.3 mph 12.6 mph 94% 0.16 in 7.00 W/m2
08:44 37.1 °F 35.5 °F 29.63 in ENE 16.1 mph 11.9 mph 94% 0.19 in 12.00 W/m2
08:49 37.3 °F 36 °F 29.62 in East 18.4 mph 12.4 mph 95% 0.19 in 7.00 W/m2
08:54 37.5 °F 35.9 °F 29.62 in East 17.3 mph 13.8 mph 94% 0.19 in 5.00 W/m2
08:59 37.8 °F 36.5 °F 29.62 in ENE 17.3 mph 12.2 mph 95% 0.2 in 0.00 W/m2
09:04 38 °F 36.4 °F 29.60 in ENE 23 mph 18.8 mph 94% 0.2 in 7.00 W/m2
09:09 37.9 °F 36.6 °F 29.60 in ENE 19.6 mph 15.1 mph 95% 0.2 in 11.00 W/m2
09:14 38.1 °F 36.5 °F 29.63 in East 15 mph 12.5 mph 94% 0.2 in 12.00 W/m2
09:19 38.6 °F 37.3 °F 29.63 in ESE 16.1 mph 10.6 mph 95% 0.2 in 19.00 W/m2
09:24 39.2 °F 37.6 °F 29.63 in East 15 mph 12.2 mph 94% 0.18 in 23.00 W/m2
09:29 39.6 °F 38.3 °F 29.62 in ENE 20.7 mph 12.6 mph 95% 0.13 in 30.00 W/m2
09:34 39.7 °F 38.4 °F 29.62 in East 19.6 mph 13 mph 95% 0.09 in 23.00 W/m2
09:39 39.7 °F 38.4 °F 29.62 in East 24.2 mph 14.7 mph 95% 0.08 in 33.00 W/m2
09:44 39.7 °F 38.4 °F 29.62 in East 19.6 mph 12.3 mph 95% 0.04 in 30.00 W/m2
09:49 39.7 °F 38.4 °F 29.62 in East 18 mph 14.6 mph 95% 0.04 in 30.00 W/m2
09:54 39.8 °F 38.5 °F 29.62 in East 18.4 mph 12.5 mph 95% 0.03 in 26.00 W/m2
09:59 40 °F 38.7 °F 29.61 in East 16.1 mph 12.5 mph 95% 0.02 in 32.00 W/m2
10:04 40.2 °F 38.9 °F 29.62 in East 13.8 mph 9.9 mph 95% 0.01 in 30.00 W/m2
10:09 40.3 °F 39 °F 29.61 in ESE 23 mph 14.5 mph 95% 0 in 39.00 W/m2
10:14 40.3 °F 39 °F 29.61 in ENE 15 mph 12.5 mph 95% 0 in 32.00 W/m2
10:19 40.4 °F 39.1 °F 29.61 in East 19.6 mph 15.2 mph 95% 0 in 30.00 W/m2
10:24 40.5 °F 39.2 °F 29.60 in East 16.1 mph 15 mph 95% 0 in 33.00 W/m2
10:29 40.6 °F 39.3 °F 29.60 in East 18.4 mph 12.7 mph 95% 0 in 37.00 W/m2
10:34 40.8 °F 39.5 °F 29.60 in ESE 16.1 mph 13 mph 95% 0 in 37.00 W/m2
10:39 40.8 °F 39.5 °F 29.60 in ESE 15 mph 11.3 mph 95% 0 in 33.00 W/m2
10:44 40.9 °F 39.6 °F 29.60 in ESE 21.9 mph 12.7 mph 95% 0 in 30.00 W/m2
10:49 40.9 °F 39.6 °F 29.59 in East 17.3 mph 11.3 mph 95% 0 in 35.00 W/m2
10:54 41 °F 39.7 °F 29.59 in ESE 17.3 mph 11.5 mph 95% 0 in 35.00 W/m2
10:59 41.1 °F 39.8 °F 29.59 in ESE 15 mph 10.8 mph 95% 0 in 33.00 W/m2
11:04 41.1 °F 39.8 °F 29.59 in ENE 16.1 mph 10.9 mph 95% 0 in 26.00 W/m2
11:09 41.3 °F 40 °F 29.59 in East 19.6 mph 11 mph 95% 0 in 28.00 W/m2
11:14 41.4 °F 40.1 °F 29.58 in East 18 mph 10.5 mph 95% 0 in 35.00 W/m2
11:19 41.5 °F 40.2 °F 29.57 in East 15 mph 12.4 mph 95% 0 in 46.00 W/m2
11:24 41.6 °F 40.3 °F 29.57 in ESE 19.6 mph 12.4 mph 95% 0 in 46.00 W/m2
11:29 41.8 °F 40.5 °F 29.57 in ENE 16.1 mph 12 mph 95% 0 in 72.00 W/m2
11:34 41.9 °F 40.6 °F 29.57 in East 16.1 mph 10 mph 95% 0 in 47.00 W/m2
11:39 42.1 °F 40.8 °F 29.57 in ESE 13.8 mph 9.8 mph 95% 0 in 37.00 W/m2
11:44 42.2 °F 40.9 °F 29.56 in East 15 mph 10.4 mph 95% 0 in 53.00 W/m2
11:49 42.3 °F 41 °F 29.56 in East 13.8 mph 11.7 mph 95% 0 in 53.00 W/m2
11:54 42.3 °F 41 °F 29.55 in East 18.4 mph 12.1 mph 95% 0 in 47.00 W/m2
11:59 42.3 °F 41 °F 29.55 in East 13.8 mph 11.7 mph 95% 0 in 28.00 W/m2
12:04 42.2 °F 40.9 °F 29.55 in East 19.6 mph 13 mph 95% 0 in 30.00 W/m2
12:09 42.3 °F 41 °F 29.54 in East 15 mph 10.9 mph 95% 0 in 37.00 W/m2
12:14 42.4 °F 41.1 °F 29.53 in ENE 17.3 mph 10.1 mph 95% 0 in 47.00 W/m2
12:19 42.4 °F 41.1 °F 29.53 in ESE 13.8 mph 8.8 mph 95% 0 in 30.00 W/m2
12:24 42.5 °F 41.2 °F 29.52 in East 16.1 mph 12.4 mph 95% 0 in 35.00 W/m2
12:29 42.5 °F 41.2 °F 29.52 in East 13.8 mph 10.5 mph 95% 0 in 46.00 W/m2
12:34 42.4 °F 41.1 °F 29.53 in East 18.4 mph 11.7 mph 95% 0 in 25.00 W/m2
12:39 42.4 °F 41.1 °F 29.52 in East 13.8 mph 9.6 mph 95% 0 in 25.00 W/m2
12:44 42.4 °F 41.1 °F 29.52 in ESE 15 mph 12.1 mph 95% 0 in 16.00 W/m2
12:49 42.4 °F 41.1 °F 29.52 in ENE 13.8 mph 11 mph 95% 0 in 12.00 W/m2
12:54 42.4 °F 41.1 °F 29.52 in East 9.2 mph 7.5 mph 95% 0.01 in 11.00 W/m2
12:59 42.4 °F 41.1 °F 29.51 in East 13.8 mph 11.2 mph 95% 0.02 in 12.00 W/m2
13:04 42.3 °F 41 °F 29.50 in East 20.7 mph 11 mph 95% 0.03 in 14.00 W/m2
13:09 42.2 °F 40.9 °F 29.50 in East 18.4 mph 14.2 mph 95% 0.05 in 14.00 W/m2
13:14 42.2 °F 40.9 °F 29.49 in East 17.3 mph 14 mph 95% 0.06 in 19.00 W/m2
13:19 42.2 °F 40.9 °F 29.48 in East 15 mph 11.6 mph 95% 0.08 in 14.00 W/m2
13:24 42.3 °F 41 °F 29.48 in East 17.3 mph 13.4 mph 95% 0.11 in 25.00 W/m2
13:29 42.4 °F 41.1 °F 29.48 in ESE 20.7 mph 11.8 mph 95% 0.12 in 25.00 W/m2
13:34 42.5 °F 41.2 °F 29.48 in East 18.4 mph 12.1 mph 95% 0.13 in 28.00 W/m2
13:39 42.7 °F 41.4 °F 29.47 in ESE 19.6 mph 12.6 mph 95% 0.15 in 84.00 W/m2
13:44 43 °F 41.7 °F 29.46 in East 18.4 mph 12.1 mph 95% 0.15 in 56.00 W/m2
13:49 43.1 °F 41.8 °F 29.46 in ESE 23 mph 13 mph 95% 0.15 in 30.00 W/m2
13:54 43.1 °F 41.8 °F 29.47 in ENE 18.4 mph 12.6 mph 95% 0.14 in 23.00 W/m2
13:59 43.1 °F 41.8 °F 29.46 in East 15 mph 13.3 mph 95% 0.13 in 47.00 W/m2
14:04 43.2 °F 41.9 °F 29.46 in East 16.1 mph 13.7 mph 95% 0.12 in 26.00 W/m2
14:09 43.3 °F 42 °F 29.45 in ESE 16.1 mph 13.9 mph 95% 0.1 in 23.00 W/m2
14:14 43.3 °F 42 °F 29.44 in East 16.1 mph 11.9 mph 95% 0.09 in 28.00 W/m2
14:19 43.4 °F 42.1 °F 29.45 in East 13.8 mph 10.4 mph 95% 0.07 in 26.00 W/m2
14:24 43.4 °F 42.1 °F 29.45 in ESE 15 mph 10.9 mph 95% 0.04 in 21.00 W/m2
14:29 43.5 °F 42.2 °F 29.45 in ESE 13 mph 9.9 mph 95% 0.03 in 26.00 W/m2
14:34 43.5 °F 42.2 °F 29.45 in ESE 16.1 mph 10.6 mph 95% 0.02 in 19.00 W/m2
14:39 43.5 °F 42.2 °F 29.45 in ESE 12.7 mph 10.4 mph 95% 0 in 9.00 W/m2
14:44 43.5 °F 42.2 °F 29.45 in East 16.1 mph 12 mph 95% 0 in 19.00 W/m2
14:49 43.6 °F 42.3 °F 29.44 in East 16.1 mph 11.3 mph 95% 0 in 44.00 W/m2
14:54 43.7 °F 42.1 °F 29.44 in ESE 16.1 mph 10.8 mph 94% 0 in 54.00 W/m2
14:59 43.7 °F 42.4 °F 29.44 in East 15 mph 10.1 mph 95% 0 in 18.00 W/m2
15:04 43.6 °F 42.3 °F 29.44 in East 13.8 mph 10.4 mph 95% 0 in 25.00 W/m2
15:09 43.5 °F 42.2 °F 29.43 in ESE 19.6 mph 13 mph 95% 0 in 16.00 W/m2
15:14 43.3 °F 42 °F 29.43 in East 17.3 mph 12.8 mph 95% 0 in 12.00 W/m2
15:19 43.3 °F 42 °F 29.43 in East 15 mph 12.1 mph 95% 0 in 5.00 W/m2
15:24 43.2 °F 41.9 °F 29.43 in East 19.6 mph 12.1 mph 95% 0 in 14.00 W/m2
15:29 43.2 °F 41.9 °F 29.43 in ESE 17.3 mph 13.2 mph 95% 0 in 11.00 W/m2
15:34 43.1 °F 41.8 °F 29.43 in East 15 mph 11.9 mph 95% 0 in 9.00 W/m2
15:39 43.1 °F 41.8 °F 29.43 in ENE 17.3 mph 11.8 mph 95% 0 in 5.00 W/m2
15:44 43.1 °F 41.8 °F 29.42 in East 15 mph 9.4 mph 95% 0 in 0.00 W/m2
15:49 43.2 °F 41.9 °F 29.42 in ESE 13.8 mph 12.5 mph 95% 0 in 0.00 W/m2
15:54 43.1 °F 41.8 °F 29.42 in East 16.1 mph 12.5 mph 95% 0 in 0.00 W/m2
15:59 43.1 °F 41.8 °F 29.42 in East 16.1 mph 10.1 mph 95% 0 in 0.00 W/m2
16:04 43.2 °F 41.9 °F 29.42 in ESE 12.7 mph 9.2 mph 95% 0 in 0.00 W/m2
16:09 43.3 °F 42 °F 29.41 in ESE 16.1 mph 9.5 mph 95% 0 in 0.00 W/m2
16:14 43.4 °F 42.1 °F 29.41 in ESE 13.8 mph 8.9 mph 95% 0 in 0.00 W/m2
16:19 43.5 °F 42.2 °F 29.41 in ESE 15 mph 8.9 mph 95% 0 in 0.00 W/m2
16:24 43.6 °F 42 °F 29.41 in ESE 11.5 mph 8.7 mph 94% 0 in 0.00 W/m2
16:29 43.7 °F 42.4 °F 29.40 in ESE 12.7 mph 10.1 mph 95% 0 in 0.00 W/m2
16:34 43.8 °F 42.5 °F 29.40 in ESE 12.7 mph 10.6 mph 95% 0 in 0.00 W/m2
16:39 43.8 °F 42.5 °F 29.40 in East 12.7 mph 10.1 mph 95% 0 in 0.00 W/m2
16:44 43.8 °F 42.5 °F 29.40 in ESE 13.8 mph 9.7 mph 95% 0 in 0.00 W/m2
16:49 43.9 °F 42.6 °F 29.40 in East 11.5 mph 8.6 mph 95% 0 in 0.00 W/m2
16:54 44 °F 42.7 °F 29.39 in ESE 13.8 mph 10.3 mph 95% 0 in 0.00 W/m2
16:59 44.1 °F 42.5 °F 29.39 in East 16.1 mph 11.9 mph 94% 0 in 0.00 W/m2
17:04 44.2 °F 42.6 °F 29.39 in East 12.7 mph 8.5 mph 94% 0 in 0.00 W/m2
17:09 44.3 °F 43 °F 29.39 in East 12.7 mph 11.9 mph 95% 0 in 0.00 W/m2
17:14 44.4 °F 43.1 °F 29.38 in East 13.8 mph 10.1 mph 95% 0 in 0.00 W/m2
17:19 44.6 °F 43.3 °F 29.38 in ESE 13.8 mph 9.2 mph 95% 0 in 0.00 W/m2
17:24 44.6 °F 43.3 °F 29.38 in East 17.3 mph 10.9 mph 95% 0 in 0.00 W/m2
17:29 44.7 °F 43.1 °F 29.38 in East 12.7 mph 8.7 mph 94% 0 in 0.00 W/m2
17:34 44.8 °F 43.2 °F 29.38 in East 12.7 mph 9.1 mph 94% 0 in 0.00 W/m2
17:39 44.9 °F 43.3 °F 29.38 in East 12.7 mph 9.1 mph 94% 0 in 0.00 W/m2
17:44 45 °F 43.7 °F 29.38 in ESE 12.7 mph 10 mph 95% 0 in 0.00 W/m2
17:49 45.2 °F 43.9 °F 29.38 in SE 17.3 mph 8.5 mph 95% 0 in 0.00 W/m2
17:54 45.2 °F 43.9 °F 29.38 in ESE 11.5 mph 7.7 mph 95% 0 in 0.00 W/m2
17:59 45.4 °F 43.8 °F 29.38 in SE 11.5 mph 8.4 mph 94% 0 in 0.00 W/m2
18:04 45.5 °F 43.9 °F 29.38 in SE 9.2 mph 6.7 mph 94% 0 in 0.00 W/m2
18:09 45.6 °F 44 °F 29.37 in ESE 11.5 mph 6.1 mph 94% 0 in 0.00 W/m2
18:14 45.6 °F 44.3 °F 29.37 in East 11 mph 7.7 mph 95% 0 in 0.00 W/m2
18:19 45.7 °F 44.4 °F 29.37 in East 12.7 mph 8.7 mph 95% 0 in 0.00 W/m2
18:24 45.7 °F 44.4 °F 29.38 in ESE 10.4 mph 7.6 mph 95% 0 in 0.00 W/m2
18:29 45.9 °F 44.5 °F 29.38 in ESE 11.5 mph 8.6 mph 95% 0 in 0.00 W/m2
18:34 46 °F 44.4 °F 29.38 in SE 9.2 mph 7.9 mph 94% 0 in 0.00 W/m2
18:39 46.2 °F 44.8 °F 29.37 in SE 8.1 mph 7.7 mph 95% 0 in 0.00 W/m2
18:44 46.3 °F 44.9 °F 29.37 in East 11.5 mph 7.1 mph 95% 0 in 0.00 W/m2
18:49 46.4 °F 45 °F 29.37 in ESE 11 mph 5.5 mph 95% 0 in 0.00 W/m2
18:54 46.5 °F 44.9 °F 29.37 in ESE 9.2 mph 6.6 mph 94% 0 in 0.00 W/m2
18:59 46.7 °F 45.1 °F 29.37 in East 10.4 mph 6.5 mph 94% 0 in 0.00 W/m2
19:04 46.9 °F 45.5 °F 29.36 in East 11.5 mph 9.5 mph 95% 0 in 0.00 W/m2
19:09 46.9 °F 45.5 °F 29.36 in SE 10.4 mph 7.3 mph 95% 0 in 0.00 W/m2
19:14 47 °F 45.6 °F 29.36 in East 10.4 mph 8.2 mph 95% 0 in 0.00 W/m2
19:19 47.1 °F 45.7 °F 29.36 in ESE 11.5 mph 7.8 mph 95% 0 in 0.00 W/m2
19:24 47.1 °F 45.7 °F 29.35 in ESE 10.4 mph 7.5 mph 95% 0 in 0.00 W/m2
19:29 47.3 °F 45.9 °F 29.35 in ESE 9.2 mph 5.7 mph 95% 0 in 0.00 W/m2
19:34 47.6 °F 46.2 °F 29.34 in ESE 10.4 mph 7.5 mph 95% 0 in 0.00 W/m2
19:39 47.8 °F 46.4 °F 29.34 in East 11.5 mph 6.8 mph 95% 0 in 0.00 W/m2
19:44 47.8 °F 46.4 °F 29.34 in East 10.4 mph 7.4 mph 95% 0 in 0.00 W/m2
19:49 47.7 °F 46.3 °F 29.34 in East 12.7 mph 7.4 mph 95% 0 in 0.00 W/m2
19:54 47.6 °F 46.2 °F 29.34 in East 10.4 mph 7.4 mph 95% 0 in 0.00 W/m2
19:59 47.7 °F 46.3 °F 29.33 in East 11.5 mph 6.7 mph 95% 0 in 0.00 W/m2
20:04 47.8 °F 46.4 °F 29.33 in East 9.2 mph 7 mph 95% 0 in 0.00 W/m2
20:09 47.8 °F 46.4 °F 29.32 in East 10.4 mph 7.8 mph 95% 0 in 0.00 W/m2
20:14 48 °F 46.6 °F 29.32 in ESE 10.4 mph 6.9 mph 95% 0 in 0.00 W/m2
20:19 48.1 °F 46.7 °F 29.32 in ESE 9.2 mph 8.3 mph 95% 0 in 0.00 W/m2
20:24 48.1 °F 46.7 °F 29.32 in ESE 11.5 mph 7.5 mph 95% 0 in 0.00 W/m2
20:29 48.2 °F 46.8 °F 29.32 in ESE 7 mph 5 mph 95% 0 in 0.00 W/m2
20:34 48.2 °F 46.8 °F 29.32 in ESE 7 mph 5.1 mph 95% 0 in 0.00 W/m2
20:39 48.5 °F 47.1 °F 29.32 in ENE 11.5 mph 8.7 mph 95% 0 in 0.00 W/m2
20:44 48.6 °F 47.2 °F 29.32 in ESE 9.2 mph 5.2 mph 95% 0 in 0.00 W/m2
20:49 48.7 °F 47.3 °F 29.32 in SE 8.1 mph 4.5 mph 95% 0 in 0.00 W/m2
20:54 48.7 °F 47.3 °F 29.31 in ESE 4 mph 4 mph 95% 0 in 0.00 W/m2
20:59 49 °F 47.6 °F 29.31 in ESE 6.9 mph 5.2 mph 95% 0 in 0.00 W/m2
21:04 49.4 °F 48 °F 29.31 in East 7 mph 5.1 mph 95% 0 in 0.00 W/m2
21:09 49.5 °F 48.1 °F 29.30 in ESE 5.8 mph 4.7 mph 95% 0 in 0.00 W/m2
21:14 49.6 °F 48.2 °F 29.30 in ESE 3.5 mph 2.9 mph 95% 0 in 0.00 W/m2
21:19 49.6 °F 48.2 °F 29.32 in WSW 3 mph 2.3 mph 95% 0 in 0.00 W/m2
21:24 51 °F 49.6 °F 29.33 in South 20.7 mph 5.6 mph 95% 0 in 0.00 W/m2
21:29 51.7 °F 50.3 °F 29.34 in WSW 21.9 mph 8.2 mph 95% 0 in 0.00 W/m2
21:35 51.6 °F 50.2 °F 29.34 in SSW 19.6 mph 12 mph 95% 0 in 0.00 W/m2
21:39 51.4 °F 50 °F 29.35 in SW 17.3 mph 11.1 mph 95% 0 in 0.00 W/m2
21:44 51.4 °F 50 °F 29.35 in WNW 11 mph 7.7 mph 95% 0 in 0.00 W/m2
21:49 51.4 °F 50 °F 29.36 in NW 9.2 mph 6.3 mph 95% 0 in 0.00 W/m2
21:54 51.4 °F 50 °F 29.36 in West 8.1 mph 4.6 mph 95% 0.03 in 0.00 W/m2
21:59 51.2 °F 49.8 °F 29.36 in WSW 3.5 mph 1.4 mph 95% 0.05 in 0.00 W/m2
22:04 50.9 °F 49.5 °F 29.35 in West 3.5 mph 2.2 mph 95% 0.08 in 0.00 W/m2
22:09 50.8 °F 49.4 °F 29.33 in NNW 3.5 mph 2.3 mph 95% 0.09 in 0.00 W/m2
22:14 50.3 °F 48.6 °F 29.32 in North 5.8 mph 3.2 mph 94% 0.1 in 0.00 W/m2
22:19 49.9 °F 48.5 °F 29.32 in NNW 6.9 mph 4.3 mph 95% 0.1 in 0.00 W/m2
22:24 49.6 °F 48.2 °F 29.33 in NW 3.5 mph 2.2 mph 95% 0.1 in 0.00 W/m2
22:29 49.4 °F 48 °F 29.33 in NW 3.5 mph 1.4 mph 95% 0.1 in 0.00 W/m2
22:34 49.1 °F 47.4 °F 29.33 in Calm     94% 0.1 in 0.00 W/m2
22:39 48.9 °F 47.5 °F 29.34 in Calm     95% 0.1 in 0.00 W/m2
22:44 48.8 °F 47.4 °F 29.34 in Calm     95% 0.1 in 0.00 W/m2
22:49 48.5 °F 46.9 °F 29.34 in Calm     94% 0.1 in 0.00 W/m2
22:54 48.1 °F 46.7 °F 29.35 in Calm     95% 0.07 in 0.00 W/m2
22:59 47.9 °F 46.5 °F 29.35 in South 2.3 mph 1.4 mph 95% 0.05 in 0.00 W/m2
23:04 47.8 °F 46.4 °F 29.36 in South 3.5 mph 1.8 mph 95% 0.02 in 0.00 W/m2
23:09 47.8 °F 46.4 °F 29.36 in South 7 mph 3.3 mph 95% 0.01 in 0.00 W/m2
23:14 47.8 °F 46.4 °F 29.36 in South 6.9 mph 3.6 mph 95% 0 in 0.00 W/m2
23:19 47.7 °F 46.3 °F 29.37 in SSW 3.5 mph 1.6 mph 95% 0 in 0.00 W/m2
23:24 47.9 °F 46.5 °F 29.37 in SW 4.6 mph 2.4 mph 95% 0 in 0.00 W/m2
23:29 48.3 °F 46.9 °F 29.37 in SSW 3.5 mph 2.5 mph 95% 0 in 0.00 W/m2
23:34 48.5 °F 47.1 °F 29.37 in SSW 5.8 mph 0.9 mph 95% 0 in 0.00 W/m2
23:39 48.7 °F 47.3 °F 29.37 in SW 3.5 mph 1.5 mph 95% 0 in 0.00 W/m2
23:44 49 °F 47.6 °F 29.37 in SW 3.5 mph 2.2 mph 95% 0 in 0.00 W/m2
23:49 49.2 °F 47.8 °F 29.37 in SW 1.2 mph 0.2 mph 95% 0 in 0.00 W/m2
23:54 49.3 °F 47.9 °F 29.37 in SSW 3.5 mph 1.2 mph 95% 0 in 0.00 W/m2
23:59 49.4 °F 48 °F 29.37 in South 3.5 mph 2.4 mph 95% 0 in 0.00 W/m2
Bourbonnais, Illinois, USA
Compliments of Weather Underground - 2 mb